Ship Status Report: callsign FICK

sailwx.info

Track history (hours):
 
Tides and Currents Weather Stations Pressure Air Temp Water Temp Dewpoint Dewpoint Depression Visibility Wind Speed Wind Dir Waves Ship Positions

Callsign FICK (name unknown)

Last reported at 2017-Oct-17 08:57 UTC. Time now 2017-Oct-20 09:03 UTC.
Position N 48°53' E 002°15'.

Date/timePositionNaut miles runAvg speedWind from/ knotsBaromVisibWave heightAir tempDewpointWater temp
2017-Oct-17 08:57N 48°53' E 002°15'0 0.0
2017-Oct-17 07:04N 48°53' E 002°15'0 4.9
2017-Oct-17 06:59N 48°53' E 002°15'0 0.0
2017-Oct-16 12:12N 48°53' E 002°15'1 3.1
2017-Oct-16 11:58N 48°53' E 002°15'2 2.5
2017-Oct-16 11:10N 48°51' E 002°14'0 0.0
2017-Oct-16 09:57N 48°51' E 002°14'0 0.1
2017-Oct-16 09:29N 48°51' E 002°14'0 0.3
2017-Oct-16 08:59N 48°51' E 002°14'0 0.2
2017-Oct-16 08:11N 48°50' E 002°13'2 1.7
2017-Oct-16 06:44N 48°53' E 002°15'152841.1
2017-Oct-14 17:31N 27°60' W 016°21'212.9
2017-Oct-14 17:23N 28°01' W 016°20'512.8
2017-Oct-14 17:00N 28°05' W 016°16'1012.6
2017-Oct-14 16:13N 28°12' W 016°09'312.4
2017-Oct-14 15:57N 28°15' W 016°07'512.6
2017-Oct-14 15:30N 28°19' W 016°02'612.8
2017-Oct-14 15:00N 28°24' W 015°58'713.0
2017-Oct-14 14:30N 28°29' W 015°53'612.8
2017-Oct-14 14:00N 28°34' W 015°48'612.6
2017-Oct-14 13:30N 28°39' W 015°44'612.8
2017-Oct-14 13:00N 28°45' W 015°41'612.7
2017-Oct-14 12:30N 28°50' W 015°37'612.8
2017-Oct-14 12:00N 28°56' W 015°34'612.9
2017-Oct-14 11:30N 29°02' W 015°31'713.0
2017-Oct-14 11:00N 29°07' W 015°27'713.1
2017-Oct-14 10:30N 29°13' W 015°24'713.2
2017-Oct-14 10:00N 29°20' W 015°22'612.9
2017-Oct-14 09:30N 29°26' W 015°20'713.1
2017-Oct-14 09:00N 29°32' W 015°18'613.0
2017-Oct-14 08:30N 29°39' W 015°17'712.7
2017-Oct-14 07:59N 29°45' W 015°14'612.8
2017-Oct-14 07:30N 29°51' W 015°12'612.6
2017-Oct-14 07:00N 29°57' W 015°11'612.7
2017-Oct-14 06:30N 30°03' W 015°09'612.7
2017-Oct-14 06:00N 30°09' W 015°07'612.7
2017-Oct-14 05:30N 30°15' W 015°05'612.5
2017-Oct-14 05:00N 30°21' W 015°03'612.5
2017-Oct-14 04:30N 30°28' W 015°01'912.6
2017-Oct-14 03:48N 30°36' W 014°59'1212.7
2017-Oct-14 02:50N 30°48' W 014°55'412.8
2017-Oct-14 02:30N 30°52' W 014°54'612.9
2017-Oct-14 02:00N 30°58' W 014°52'612.9
2017-Oct-14 01:30N 31°04' W 014°50'613.0
2017-Oct-14 01:00N 31°11' W 014°48'712.9
2017-Oct-14 00:30N 31°17' W 014°46'613.0
2017-Oct-14 00:00N 31°23' W 014°44'713.0
2017-Oct-13 23:30N 31°30' W 014°42'713.0
2017-Oct-13 23:00N 31°36' W 014°40'613.0
2017-Oct-13 22:30N 31°42' W 014°38'713.0
2017-Oct-13 22:00N 31°48' W 014°36'612.7
2017-Oct-13 21:30N 31°55' W 014°34'612.7
2017-Oct-13 21:00N 32°01' W 014°32'612.7
2017-Oct-13 20:30N 32°07' W 014°30'712.8
2017-Oct-13 20:00N 32°13' W 014°28'613.1
2017-Oct-13 19:30N 32°19' W 014°26'612.9
2017-Oct-13 19:00N 32°26' W 014°25'612.7
2017-Oct-13 18:30N 32°32' W 014°23'612.5
2017-Oct-13 18:00N 32°38' W 014°20'612.4
2017-Oct-13 17:30N 32°44' W 014°18'612.4
2017-Oct-13 17:00N 32°50' W 014°16'712.4
2017-Oct-13 16:28N 32°56' W 014°14'612.2
2017-Oct-13 16:00N 33°02' W 014°13'612.5
2017-Oct-13 15:30N 33°08' W 014°11'712.7
2017-Oct-13 14:59N 33°14' W 014°09'612.6
2017-Oct-13 14:30N 33°20' W 014°07'612.7
2017-Oct-13 14:00N 33°26' W 014°05'612.2
2017-Oct-13 13:30N 33°32' W 014°03'612.1
2017-Oct-13 13:00N 33°38' W 014°01'712.6
2017-Oct-13 12:29N 33°44' W 013°59'612.7
2017-Oct-13 12:00N 33°50' W 013°57'11612313.6
2017-Oct-13 11:30N 48°53' E 002°15'11471642.4
2017-Oct-13 10:48N 34°04' W 013°52'412.5
2017-Oct-13 10:30N 34°08' W 013°51'114450.3
2017-Oct-12 11:47N 48°53' E 002°15'1 1.4
2017-Oct-12 11:15N 48°53' E 002°15'849528.5
2017-Oct-12 09:38N 39°13' W 012°08'514.1
2017-Oct-12 09:15N 39°18' W 012°07'613.9
2017-Oct-12 08:50N 39°24' W 012°05'513.8
2017-Oct-12 08:30N 39°28' W 012°04'714.2
2017-Oct-12 08:00N 39°35' W 012°01'61112.6
2017-Oct-10 07:33N 48°46' W 005°53'4810.6
2017-Oct-10 02:59N 49°15' W 004°55'613.0
2017-Oct-10 02:30N 49°19' W 004°46'913.5
2017-Oct-10 01:51N 49°23' W 004°35'613.7
2017-Oct-10 01:27N 49°26' W 004°27'713.8
2017-Oct-10 00:56N 49°29' W 004°18'613.6
2017-Oct-10 00:28N 49°32' W 004°09'1113.1
2017-Oct-09 23:37N 49°38' W 003°54'212.5
2017-Oct-09 23:27N 49°39' W 003°51'612.3
2017-Oct-09 22:59N 49°42' W 003°44'1011.4
2017-Oct-09 22:07N 49°47' W 003°31'111.1
2017-Oct-09 22:00N 49°48' W 003°29'510.8
2017-Oct-09 21:30N 49°52' W 003°23'510.6
2017-Oct-09 21:00N 49°55' W 003°17'510.4
2017-Oct-09 20:30N 49°58' W 003°10'510.8
2017-Oct-09 20:00N 49°59' W 003°02'611.1
2017-Oct-09 19:30N 50°00' W 002°53'611.7
2017-Oct-09 19:00N 50°02' W 002°45'9413.9
2017-Oct-09 12:14N 50°27' W 000°22'210.8
2017-Oct-09 12:00N 50°28' W 000°19'510.4
2017-Oct-09 11:30N 50°29' W 000°11'5 9.9
2017-Oct-09 11:00N 50°30' W 000°03'5 9.7
2017-Oct-09 10:30N 50°32' E 000°04'5 9.9
2017-Oct-09 10:00N 50°33' E 000°12'510.4
2017-Oct-09 09:30N 50°34' E 000°19'611.2
2017-Oct-09 09:00N 50°36' E 000°28'12281.2
2017-Oct-09 07:30N 48°55' E 002°12'0 0.6
2017-Oct-09 07:00N 48°55' E 002°12'124247.8
2017-Oct-09 06:30N 50°53' E 001°13'713.4
2017-Oct-09 06:00N 50°57' E 001°21'612.9
2017-Oct-09 05:30N 51°02' E 001°28'611.3
2017-Oct-09 05:00N 51°06' E 001°35'510.4
2017-Oct-09 04:30N 51°10' E 001°40'510.4
2017-Oct-09 04:00N 51°14' E 001°46'510.3
2017-Oct-09 03:30N 51°19' E 001°48'510.2
2017-Oct-09 03:00N 51°23' E 001°51'510.4
2017-Oct-09 02:30N 51°28' E 001°56'510.9
2017-Oct-09 02:00N 51°32' E 002°02'611.9
2017-Oct-09 01:30N 51°36' E 002°08'612.0
2017-Oct-09 01:00N 51°40' E 002°15'712.8
2017-Oct-09 00:30N 51°45' E 002°23'5012.6
2017-Oct-08 20:32N 52°05' E 003°37'213.0
2017-Oct-08 20:24N 52°06' E 003°39'2 5.1
2017-Oct-08 20:00N 52°07' E 003°42'0 0.2
2017-Oct-08 19:12N 52°07' E 003°42'0 0.1
2017-Oct-08 18:42N 52°08' E 003°42'0 0.1
2017-Oct-08 18:24N 52°08' E 003°42'1 2.1
2017-Oct-08 17:56N 52°08' E 003°43'510.9
2017-Oct-08 17:30N 52°05' E 003°49'4 8.5
2017-Oct-08 17:00N 52°02' E 003°55'611.5
2017-Oct-08 16:30N 51°59' E 004°03'510.6
2017-Oct-08 16:00N 51°57' E 004°10'2 3.9
2017-Oct-08 15:30N 51°55' E 004°12'0 0.3
2017-Oct-08 15:00N 51°55' E 004°12'0 0.0
2017-Oct-08 14:29N 51°55' E 004°12'0 0.0
2017-Oct-08 13:56N 51°55' E 004°12'0 0.0
2017-Oct-08 13:29N 51°55' E 004°12'0 0.0
2017-Oct-08 12:56N 51°55' E 004°12'0 0.0
2017-Oct-08 12:29N 51°55' E 004°12'0 0.0
2017-Oct-08 11:56N 51°55' E 004°12'0 0.0
2017-Oct-08 11:29N 51°55' E 004°12'0 0.0
2017-Oct-08 10:56N 51°55' E 004°12'0 0.0
2017-Oct-08 10:29N 51°55' E 004°12'0 0.0
2017-Oct-08 09:59N 51°55' E 004°12'0 0.0
2017-Oct-08 09:26N 51°55' E 004°12'0 0.0
2017-Oct-08 08:59N 51°55' E 004°12'0 0.0
2017-Oct-08 08:29N 51°55' E 004°12'0 0.0
2017-Oct-08 07:59N 51°55' E 004°12'0 0.0
2017-Oct-08 07:29N 51°55' E 004°12'0 0.0
2017-Oct-08 06:59N 51°55' E 004°12'0 0.0
2017-Oct-08 06:29N 51°55' E 004°12'0 0.0
2017-Oct-08 05:59N 51°55' E 004°12'0 0.0
2017-Oct-08 05:29N 51°55' E 004°12'0 0.0
2017-Oct-08 04:59N 51°55' E 004°12'0 0.0
2017-Oct-08 04:23N 51°55' E 004°12'0 0.0
2017-Oct-08 03:59N 51°55' E 004°12'0 0.0
2017-Oct-08 03:29N 51°55' E 004°12'0 0.0
2017-Oct-08 02:59N 51°55' E 004°12'0 0.0
2017-Oct-08 02:29N 51°55' E 004°12'0 0.0
2017-Oct-08 01:56N 51°55' E 004°12'0 0.0
2017-Oct-08 01:26N 51°55' E 004°12'0 0.0
2017-Oct-08 00:59N 51°55' E 004°12'0 0.0
2017-Oct-08 00:14N 51°55' E 004°12'0 0.0
2017-Oct-07 23:53N 51°55' E 004°12'0 0.0
2017-Oct-07 23:29N 51°55' E 004°12'0 0.0
2017-Oct-07 22:56N 51°55' E 004°12'0 0.0
2017-Oct-07 22:29N 51°55' E 004°12'0 0.0
2017-Oct-07 21:59N 51°55' E 004°12'0 0.0
2017-Oct-07 21:29N 51°55' E 004°12'0 0.0
2017-Oct-07 20:59N 51°55' E 004°12'0 0.0
2017-Oct-07 20:26N 51°55' E 004°12'0 0.0
2017-Oct-07 19:56N 51°55' E 004°12'0 0.0
2017-Oct-07 19:08N 51°55' E 004°12'0 0.0
2017-Oct-07 18:56N 51°55' E 004°12'0 0.0
2017-Oct-07 18:29N 51°55' E 004°12'0 0.0
2017-Oct-07 17:59N 51°55' E 004°12'0 0.0
2017-Oct-07 17:29N 51°55' E 004°12'0 0.0
2017-Oct-07 16:59N 51°55' E 004°12'0 0.0
2017-Oct-07 16:29N 51°55' E 004°12'0 0.0
2017-Oct-07 15:59N 51°55' E 004°12'0 0.0
2017-Oct-07 15:26N 51°55' E 004°12'0 0.0
2017-Oct-07 14:56N 51°55' E 004°12'0 0.0
2017-Oct-07 14:29N 51°55' E 004°12'0 0.0
2017-Oct-07 13:59N 51°55' E 004°12'0 0.0
2017-Oct-07 13:29N 51°55' E 004°12'0 0.0
2017-Oct-07 12:59N 51°55' E 004°12'0 0.0
2017-Oct-07 12:29N 51°55' E 004°12'0 0.0
2017-Oct-07 11:59N 51°55' E 004°12'0 0.0
2017-Oct-07 11:14N 51°55' E 004°12'0 0.0
2017-Oct-07 10:59N 51°55' E 004°12'0 0.0
2017-Oct-07 10:02N 51°55' E 004°12'0 0.0
2017-Oct-07 09:44N 51°55' E 004°12'0 0.0
2017-Oct-07 09:26N 51°55' E 004°12'  
Track history (hours):
 
Tides and Currents Weather Stations Pressure Air Temp Water Temp Dewpoint Dewpoint Depression Visibility Wind Speed Wind Dir Waves Ship Positions

Callsign FICK (name unknown)

Last reported at 2017-Oct-17 08:57 UTC. Time now 2017-Oct-20 09:03 UTC.
Position N 48°53' E 002°15'.

Date/timePositionNaut miles runAvg speedWind from/ knotsBaromVisibWave heightAir tempDewpointWater temp
2017-Oct-17 08:57N 48°53' E 002°15'0 0.0
2017-Oct-17 07:04N 48°53' E 002°15'0 4.9
2017-Oct-17 06:59N 48°53' E 002°15'0 0.0
2017-Oct-16 12:12N 48°53' E 002°15'1 3.1
2017-Oct-16 11:58N 48°53' E 002°15'2 2.5
2017-Oct-16 11:10N 48°51' E 002°14'0 0.0
2017-Oct-16 09:57N 48°51' E 002°14'0 0.1
2017-Oct-16 09:29N 48°51' E 002°14'0 0.3
2017-Oct-16 08:59N 48°51' E 002°14'0 0.2
2017-Oct-16 08:11N 48°50' E 002°13'2 1.7
2017-Oct-16 06:44N 48°53' E 002°15'152841.1
2017-Oct-14 17:31N 27°60' W 016°21'212.9
2017-Oct-14 17:23N 28°01' W 016°20'512.8
2017-Oct-14 17:00N 28°05' W 016°16'1012.6
2017-Oct-14 16:13N 28°12' W 016°09'312.4
2017-Oct-14 15:57N 28°15' W 016°07'512.6
2017-Oct-14 15:30N 28°19' W 016°02'612.8
2017-Oct-14 15:00N 28°24' W 015°58'713.0
2017-Oct-14 14:30N 28°29' W 015°53'612.8
2017-Oct-14 14:00N 28°34' W 015°48'612.6
2017-Oct-14 13:30N 28°39' W 015°44'612.8
2017-Oct-14 13:00N 28°45' W 015°41'612.7
2017-Oct-14 12:30N 28°50' W 015°37'612.8
2017-Oct-14 12:00N 28°56' W 015°34'612.9
2017-Oct-14 11:30N 29°02' W 015°31'713.0
2017-Oct-14 11:00N 29°07' W 015°27'713.1
2017-Oct-14 10:30N 29°13' W 015°24'713.2
2017-Oct-14 10:00N 29°20' W 015°22'612.9
2017-Oct-14 09:30N 29°26' W 015°20'713.1
2017-Oct-14 09:00N 29°32' W 015°18'613.0
2017-Oct-14 08:30N 29°39' W 015°17'712.7
2017-Oct-14 07:59N 29°45' W 015°14'612.8
2017-Oct-14 07:30N 29°51' W 015°12'612.6
2017-Oct-14 07:00N 29°57' W 015°11'612.7
2017-Oct-14 06:30N 30°03' W 015°09'612.7
2017-Oct-14 06:00N 30°09' W 015°07'612.7
2017-Oct-14 05:30N 30°15' W 015°05'612.5
2017-Oct-14 05:00N 30°21' W 015°03'612.5
2017-Oct-14 04:30N 30°28' W 015°01'912.6
2017-Oct-14 03:48N 30°36' W 014°59'1212.7
2017-Oct-14 02:50N 30°48' W 014°55'412.8
2017-Oct-14 02:30N 30°52' W 014°54'612.9
2017-Oct-14 02:00N 30°58' W 014°52'612.9
2017-Oct-14 01:30N 31°04' W 014°50'613.0
2017-Oct-14 01:00N 31°11' W 014°48'712.9
2017-Oct-14 00:30N 31°17' W 014°46'613.0
2017-Oct-14 00:00N 31°23' W 014°44'713.0
2017-Oct-13 23:30N 31°30' W 014°42'713.0
2017-Oct-13 23:00N 31°36' W 014°40'613.0
2017-Oct-13 22:30N 31°42' W 014°38'713.0
2017-Oct-13 22:00N 31°48' W 014°36'612.7
2017-Oct-13 21:30N 31°55' W 014°34'612.7
2017-Oct-13 21:00N 32°01' W 014°32'612.7
2017-Oct-13 20:30N 32°07' W 014°30'712.8
2017-Oct-13 20:00N 32°13' W 014°28'613.1
2017-Oct-13 19:30N 32°19' W 014°26'612.9
2017-Oct-13 19:00N 32°26' W 014°25'612.7
2017-Oct-13 18:30N 32°32' W 014°23'612.5
2017-Oct-13 18:00N 32°38' W 014°20'612.4
2017-Oct-13 17:30N 32°44' W 014°18'612.4
2017-Oct-13 17:00N 32°50' W 014°16'712.4
2017-Oct-13 16:28N 32°56' W 014°14'612.2
2017-Oct-13 16:00N 33°02' W 014°13'612.5
2017-Oct-13 15:30N 33°08' W 014°11'712.7
2017-Oct-13 14:59N 33°14' W 014°09'612.6
2017-Oct-13 14:30N 33°20' W 014°07'612.7
2017-Oct-13 14:00N 33°26' W 014°05'612.2
2017-Oct-13 13:30N 33°32' W 014°03'612.1
2017-Oct-13 13:00N 33°38' W 014°01'712.6
2017-Oct-13 12:29N 33°44' W 013°59'612.7
2017-Oct-13 12:00N 33°50' W 013°57'11612313.6
2017-Oct-13 11:30N 48°53' E 002°15'11471642.4
2017-Oct-13 10:48N 34°04' W 013°52'412.5
2017-Oct-13 10:30N 34°08' W 013°51'114450.3
2017-Oct-12 11:47N 48°53' E 002°15'1 1.4
2017-Oct-12 11:15N 48°53' E 002°15'849528.5
2017-Oct-12 09:38N 39°13' W 012°08'514.1
2017-Oct-12 09:15N 39°18' W 012°07'613.9
2017-Oct-12 08:50N 39°24' W 012°05'513.8
2017-Oct-12 08:30N 39°28' W 012°04'714.2
2017-Oct-12 08:00N 39°35' W 012°01'61112.6
2017-Oct-10 07:33N 48°46' W 005°53'4810.6
2017-Oct-10 02:59N 49°15' W 004°55'613.0
2017-Oct-10 02:30N 49°19' W 004°46'913.5
2017-Oct-10 01:51N 49°23' W 004°35'613.7
2017-Oct-10 01:27N 49°26' W 004°27'713.8
2017-Oct-10 00:56N 49°29' W 004°18'613.6
2017-Oct-10 00:28N 49°32' W 004°09'1113.1
2017-Oct-09 23:37N 49°38' W 003°54'212.5
2017-Oct-09 23:27N 49°39' W 003°51'612.3
2017-Oct-09 22:59N 49°42' W 003°44'1011.4
2017-Oct-09 22:07N 49°47' W 003°31'111.1
2017-Oct-09 22:00N 49°48' W 003°29'510.8
2017-Oct-09 21:30N 49°52' W 003°23'510.6
2017-Oct-09 21:00N 49°55' W 003°17'510.4
2017-Oct-09 20:30N 49°58' W 003°10'510.8
2017-Oct-09 20:00N 49°59' W 003°02'611.1
2017-Oct-09 19:30N 50°00' W 002°53'611.7
2017-Oct-09 19:00N 50°02' W 002°45'9413.9
2017-Oct-09 12:14N 50°27' W 000°22'210.8
2017-Oct-09 12:00N 50°28' W 000°19'510.4
2017-Oct-09 11:30N 50°29' W 000°11'5 9.9
2017-Oct-09 11:00N 50°30' W 000°03'5 9.7
2017-Oct-09 10:30N 50°32' E 000°04'5 9.9
2017-Oct-09 10:00N 50°33' E 000°12'510.4
2017-Oct-09 09:30N 50°34' E 000°19'611.2
2017-Oct-09 09:00N 50°36' E 000°28'12281.2
2017-Oct-09 07:30N 48°55' E 002°12'0 0.6
2017-Oct-09 07:00N 48°55' E 002°12'124247.8
2017-Oct-09 06:30N 50°53' E 001°13'713.4
2017-Oct-09 06:00N 50°57' E 001°21'612.9
2017-Oct-09 05:30N 51°02' E 001°28'611.3
2017-Oct-09 05:00N 51°06' E 001°35'510.4
2017-Oct-09 04:30N 51°10' E 001°40'510.4
2017-Oct-09 04:00N 51°14' E 001°46'510.3
2017-Oct-09 03:30N 51°19' E 001°48'510.2
2017-Oct-09 03:00N 51°23' E 001°51'510.4
2017-Oct-09 02:30N 51°28' E 001°56'510.9
2017-Oct-09 02:00N 51°32' E 002°02'611.9
2017-Oct-09 01:30N 51°36' E 002°08'612.0
2017-Oct-09 01:00N 51°40' E 002°15'712.8
2017-Oct-09 00:30N 51°45' E 002°23'5012.6
2017-Oct-08 20:32N 52°05' E 003°37'213.0
2017-Oct-08 20:24N 52°06' E 003°39'2 5.1
2017-Oct-08 20:00N 52°07' E 003°42'0 0.2
2017-Oct-08 19:12N 52°07' E 003°42'0 0.1
2017-Oct-08 18:42N 52°08' E 003°42'0 0.1
2017-Oct-08 18:24N 52°08' E 003°42'1 2.1
2017-Oct-08 17:56N 52°08' E 003°43'510.9
2017-Oct-08 17:30N 52°05' E 003°49'4 8.5
2017-Oct-08 17:00N 52°02' E 003°55'611.5
2017-Oct-08 16:30N 51°59' E 004°03'510.6
2017-Oct-08 16:00N 51°57' E 004°10'2 3.9
2017-Oct-08 15:30N 51°55' E 004°12'0 0.3
2017-Oct-08 15:00N 51°55' E 004°12'0 0.0
2017-Oct-08 14:29N 51°55' E 004°12'0 0.0
2017-Oct-08 13:56N 51°55' E 004°12'0 0.0
2017-Oct-08 13:29N 51°55' E 004°12'0 0.0
2017-Oct-08 12:56N 51°55' E 004°12'0 0.0
2017-Oct-08 12:29N 51°55' E 004°12'0 0.0
2017-Oct-08 11:56N 51°55' E 004°12'0 0.0
2017-Oct-08 11:29N 51°55' E 004°12'0 0.0
2017-Oct-08 10:56N 51°55' E 004°12'0 0.0
2017-Oct-08 10:29N 51°55' E 004°12'0 0.0
2017-Oct-08 09:59N 51°55' E 004°12'0 0.0
2017-Oct-08 09:26N 51°55' E 004°12'0 0.0
2017-Oct-08 08:59N 51°55' E 004°12'0 0.0
2017-Oct-08 08:29N 51°55' E 004°12'0 0.0
2017-Oct-08 07:59N 51°55' E 004°12'0 0.0
2017-Oct-08 07:29N 51°55' E 004°12'0 0.0
2017-Oct-08 06:59N 51°55' E 004°12'0 0.0
2017-Oct-08 06:29N 51°55' E 004°12'0 0.0
2017-Oct-08 05:59N 51°55' E 004°12'0 0.0
2017-Oct-08 05:29N 51°55' E 004°12'0 0.0
2017-Oct-08 04:59N 51°55' E 004°12'0 0.0
2017-Oct-08 04:23N 51°55' E 004°12'0 0.0
2017-Oct-08 03:59N 51°55' E 004°12'0 0.0
2017-Oct-08 03:29N 51°55' E 004°12'0 0.0
2017-Oct-08 02:59N 51°55' E 004°12'0 0.0
2017-Oct-08 02:29N 51°55' E 004°12'0 0.0
2017-Oct-08 01:56N 51°55' E 004°12'0 0.0
2017-Oct-08 01:26N 51°55' E 004°12'0 0.0
2017-Oct-08 00:59N 51°55' E 004°12'0 0.0
2017-Oct-08 00:14N 51°55' E 004°12'0 0.0
2017-Oct-07 23:53N 51°55' E 004°12'0 0.0
2017-Oct-07 23:29N 51°55' E 004°12'0 0.0
2017-Oct-07 22:56N 51°55' E 004°12'0 0.0
2017-Oct-07 22:29N 51°55' E 004°12'0 0.0
2017-Oct-07 21:59N 51°55' E 004°12'0 0.0
2017-Oct-07 21:29N 51°55' E 004°12'0 0.0
2017-Oct-07 20:59N 51°55' E 004°12'0 0.0
2017-Oct-07 20:26N 51°55' E 004°12'0 0.0
2017-Oct-07 19:56N 51°55' E 004°12'0 0.0
2017-Oct-07 19:08N 51°55' E 004°12'0 0.0
2017-Oct-07 18:56N 51°55' E 004°12'0 0.0
2017-Oct-07 18:29N 51°55' E 004°12'0 0.0
2017-Oct-07 17:59N 51°55' E 004°12'0 0.0
2017-Oct-07 17:29N 51°55' E 004°12'0 0.0
2017-Oct-07 16:59N 51°55' E 004°12'0 0.0
2017-Oct-07 16:29N 51°55' E 004°12'0 0.0
2017-Oct-07 15:59N 51°55' E 004°12'0 0.0
2017-Oct-07 15:26N 51°55' E 004°12'0 0.0
2017-Oct-07 14:56N 51°55' E 004°12'0 0.0
2017-Oct-07 14:29N 51°55' E 004°12'0 0.0
2017-Oct-07 13:59N 51°55' E 004°12'0 0.0
2017-Oct-07 13:29N 51°55' E 004°12'0 0.0
2017-Oct-07 12:59N 51°55' E 004°12'0 0.0
2017-Oct-07 12:29N 51°55' E 004°12'0 0.0
2017-Oct-07 11:59N 51°55' E 004°12'0 0.0
2017-Oct-07 11:14N 51°55' E 004°12'0 0.0
2017-Oct-07 10:59N 51°55' E 004°12'0 0.0
2017-Oct-07 10:02N 51°55' E 004°12'0 0.0
2017-Oct-07 09:44N 51°55' E 004°12'0 0.0
2017-Oct-07 09:26N 51°55' E 004°12'  

Dump ship's entire track history